createdAt,value
2024-02-03T00:00:20.436Z,1.10
2024-02-03T00:02:47.580Z,1.00
2024-02-03T00:05:14.727Z,1.00
2024-02-03T00:07:41.784Z,1.00
2024-02-03T00:10:09.220Z,1.10
2024-02-03T00:12:36.475Z,1.20
2024-02-03T00:15:03.878Z,1.40
2024-02-03T00:17:30.990Z,1.30
2024-02-03T00:19:58.164Z,1.30
2024-02-03T00:22:25.214Z,1.10
2024-02-03T00:24:52.387Z,1.10
2024-02-03T00:27:19.458Z,1.10
2024-02-03T00:29:46.534Z,1.40
2024-02-03T00:32:13.674Z,1.80
2024-02-03T00:34:42.907Z,2.00
2024-02-03T00:37:10.128Z,2.00
2024-02-03T00:39:41.869Z,2.00
2024-02-03T00:42:09.315Z,2.50
2024-02-03T00:44:36.452Z,2.60
2024-02-03T00:47:03.499Z,2.60
2024-02-03T00:49:30.881Z,2.70
2024-02-03T00:51:58.066Z,2.50
2024-02-03T00:54:25.287Z,2.10
2024-02-03T00:56:52.484Z,2.00
2024-02-03T00:59:19.630Z,1.80
2024-02-03T01:01:46.773Z,1.80
2024-02-03T01:04:14.047Z,2.20
2024-02-03T01:06:41.143Z,2.00
2024-02-03T01:09:08.380Z,2.10
2024-02-03T01:11:36.824Z,2.40
2024-02-03T01:14:04.080Z,2.40
2024-02-03T01:16:31.973Z,2.30
2024-02-03T01:18:59.098Z,2.20
2024-02-03T01:21:26.323Z,2.10
2024-02-03T01:23:55.565Z,2.20
2024-02-03T01:26:22.674Z,2.20
2024-02-03T01:28:49.759Z,1.90
2024-02-03T01:31:16.890Z,1.50
2024-02-03T01:33:44.137Z,1.50
2024-02-03T01:36:11.289Z,1.50
2024-02-03T01:38:38.603Z,1.40
2024-02-03T01:41:06.252Z,1.40
2024-02-03T01:43:33.283Z,1.50
2024-02-03T01:46:00.567Z,2.10
2024-02-03T01:48:27.631Z,1.70
2024-02-03T01:50:55.684Z,1.60
2024-02-03T01:53:23.227Z,1.50
2024-02-03T01:55:51.355Z,1.90
2024-02-03T01:58:18.910Z,1.80
2024-02-03T02:00:47.161Z,1.60
2024-02-03T02:03:16.011Z,1.70
2024-02-03T02:05:45.223Z,1.60
2024-02-03T02:08:12.786Z,1.50
2024-02-03T02:10:39.876Z,1.50
2024-02-03T02:13:06.923Z,1.20
2024-02-03T02:15:34.056Z,1.10
2024-02-03T02:18:02.096Z,1.00
2024-02-03T02:20:29.429Z,0.90
2024-02-03T02:22:56.600Z,0.80
2024-02-03T02:25:23.762Z,0.80
2024-02-03T02:27:54.170Z,0.80
2024-02-03T02:30:22.217Z,0.70
2024-02-03T02:32:49.655Z,0.60
2024-02-03T02:35:16.919Z,0.40
2024-02-03T02:37:43.943Z,0.40
2024-02-03T02:40:12.668Z,0.50
2024-02-03T02:42:39.892Z,0.60
2024-02-03T02:45:07.510Z,0.60
2024-02-03T02:47:34.859Z,0.50
2024-02-03T02:50:02.182Z,0.80
2024-02-03T02:52:29.254Z,0.80
2024-02-03T02:54:57.919Z,0.80
2024-02-03T02:57:25.078Z,0.80
2024-02-03T02:59:52.088Z,0.90
2024-02-03T03:02:19.140Z,0.90
2024-02-03T03:04:46.284Z,1.10
2024-02-03T03:07:17.357Z,1.20
2024-02-03T03:09:44.552Z,1.00
2024-02-03T03:12:11.967Z,0.80
2024-02-03T03:14:39.236Z,0.80
2024-02-03T03:17:06.331Z,0.80
2024-02-03T03:19:38.316Z,0.50
2024-02-03T03:22:07.341Z,0.40
2024-02-03T03:24:34.496Z,0.40
2024-02-03T03:27:01.762Z,0.30
2024-02-03T03:29:28.788Z,0.40
2024-02-03T03:31:55.823Z,0.30
2024-02-03T03:34:23.078Z,0.30
2024-02-03T03:36:50.384Z,0.20
2024-02-03T03:39:17.635Z,0.20
2024-02-03T03:41:44.770Z,0.20
2024-02-03T03:44:11.817Z,0.10
2024-02-03T03:46:39.591Z,0.10
2024-02-03T03:49:06.748Z,0.20
2024-02-03T03:51:33.878Z,0.10
2024-02-03T03:54:01.318Z,0.10
2024-02-03T03:56:28.404Z,0.00
2024-02-03T03:58:55.617Z,0.20
2024-02-03T04:01:22.710Z,0.20
2024-02-03T04:03:49.872Z,0.30
2024-02-03T04:06:17.235Z,0.30
2024-02-03T04:08:44.237Z,0.20
2024-02-03T04:11:11.268Z,-0.10
2024-02-03T04:13:40.936Z,0.00
2024-02-03T04:16:08.186Z,0.30
2024-02-03T04:18:35.367Z,0.40
2024-02-03T04:21:02.688Z,0.40
2024-02-03T04:23:29.660Z,0.50
2024-02-03T04:25:57.698Z,0.60
2024-02-03T04:28:24.660Z,0.50
2024-02-03T04:30:51.783Z,0.70
2024-02-03T04:33:19.307Z,1.10
2024-02-03T04:35:46.407Z,1.20
2024-02-03T04:38:13.501Z,1.20
2024-02-03T04:40:40.561Z,1.30
2024-02-03T04:43:07.744Z,1.50
2024-02-03T04:45:34.736Z,1.60
2024-02-03T04:48:01.838Z,1.60
2024-02-03T04:50:29.219Z,1.60
2024-02-03T04:52:56.189Z,1.40
2024-02-03T04:55:23.615Z,1.30
2024-02-03T04:57:50.861Z,1.40
2024-02-03T05:00:18.708Z,1.60
2024-02-03T05:02:45.867Z,1.70
2024-02-03T05:05:12.973Z,1.60
2024-02-03T05:07:40.122Z,1.80
2024-02-03T05:10:07.541Z,1.90
2024-02-03T05:12:34.672Z,1.90
2024-02-03T05:15:05.077Z,2.00
2024-02-03T05:17:33.274Z,2.30
2024-02-03T05:20:00.489Z,2.00
2024-02-03T05:22:27.548Z,1.90
2024-02-03T05:24:54.774Z,2.10
2024-02-03T05:27:21.921Z,2.00
2024-02-03T05:29:48.976Z,1.90
2024-02-03T05:32:15.998Z,1.90
2024-02-03T05:34:43.292Z,2.20
2024-02-03T05:37:11.317Z,2.00
2024-02-03T05:39:38.533Z,1.80
2024-02-03T05:42:05.802Z,1.70
2024-02-03T05:44:32.838Z,1.90
2024-02-03T05:46:59.821Z,2.00
2024-02-03T05:49:27.025Z,2.20
2024-02-03T05:51:54.136Z,1.80
2024-02-03T05:54:21.203Z,1.90
2024-02-03T05:56:48.855Z,1.80
2024-02-03T05:59:27.480Z,1.90
2024-02-03T06:02:02.811Z,2.10
2024-02-03T06:04:30.053Z,2.10
2024-02-03T06:06:57.264Z,2.20
2024-02-03T06:09:26.949Z,2.50
2024-02-03T06:11:54.178Z,2.60
2024-02-03T06:14:21.138Z,2.60
2024-02-03T06:16:48.302Z,2.60
2024-02-03T06:19:15.434Z,2.40
2024-02-03T06:21:42.745Z,2.30
2024-02-03T06:24:11.724Z,2.50
2024-02-03T06:26:38.855Z,2.40
2024-02-03T06:29:08.315Z,2.50
2024-02-03T06:31:35.330Z,2.70
2024-02-03T06:34:02.438Z,2.70
2024-02-03T06:36:29.600Z,2.70
2024-02-03T06:38:56.676Z,2.90
2024-02-03T06:41:23.838Z,2.60
2024-02-03T06:43:50.859Z,2.40
2024-02-03T06:46:18.042Z,2.10
2024-02-03T06:48:45.979Z,2.00
2024-02-03T06:51:13.316Z,2.10
2024-02-03T06:53:40.367Z,2.20
2024-02-03T06:56:10.444Z,2.30
2024-02-03T06:58:37.544Z,2.50
2024-02-03T07:01:05.539Z,2.60
2024-02-03T07:03:33.088Z,2.60
2024-02-03T07:06:00.334Z,2.70
2024-02-03T07:08:27.355Z,2.90
2024-02-03T07:10:54.449Z,3.00
2024-02-03T07:13:23.623Z,3.60
2024-02-03T07:15:51.698Z,3.50
2024-02-03T07:18:19.821Z,3.60
2024-02-03T07:20:47.066Z,4.00
2024-02-03T07:23:14.136Z,4.20
2024-02-03T07:25:41.145Z,4.10
2024-02-03T07:28:08.585Z,4.20
2024-02-03T07:30:35.811Z,4.60
2024-02-03T07:33:03.224Z,4.60
2024-02-03T07:35:31.393Z,4.60
2024-02-03T07:37:58.514Z,4.50
2024-02-03T07:40:25.650Z,4.60
2024-02-03T07:42:52.865Z,4.70
2024-02-03T07:45:20.094Z,5.00
2024-02-03T07:47:47.306Z,5.40
2024-02-03T07:50:14.394Z,5.60
2024-02-03T07:52:41.459Z,5.40
2024-02-03T07:55:08.958Z,5.10
2024-02-03T07:57:36.078Z,5.10
2024-02-03T08:00:03.698Z,5.30
2024-02-03T08:02:30.866Z,5.30
2024-02-03T08:04:58.069Z,5.40
2024-02-03T08:07:25.084Z,5.50
2024-02-03T08:09:52.221Z,5.70
2024-02-03T08:12:19.512Z,5.90
2024-02-03T08:14:46.578Z,5.70
2024-02-03T08:17:13.686Z,5.70
2024-02-03T08:19:41.202Z,5.80
2024-02-03T08:22:08.437Z,6.00
2024-02-03T08:24:35.477Z,6.10
2024-02-03T08:27:02.504Z,6.50
2024-02-03T08:29:29.595Z,6.70
2024-02-03T08:31:56.696Z,6.80
2024-02-03T08:34:23.958Z,6.80
2024-02-03T08:36:51.074Z,6.90
2024-02-03T08:41:48.203Z,7.40
2024-02-03T08:44:15.262Z,7.50
2024-02-03T08:46:42.275Z,7.50
2024-02-03T08:49:09.846Z,7.60
2024-02-03T08:51:38.352Z,7.90
2024-02-03T08:54:06.334Z,8.20
2024-02-03T08:56:33.512Z,8.20
2024-02-03T08:59:00.584Z,8.40
2024-02-03T09:01:27.856Z,10.00
2024-02-03T09:03:55.279Z,9.60
2024-02-03T09:06:22.439Z,9.30
2024-02-03T09:08:49.458Z,9.30
2024-02-03T09:11:16.434Z,9.70
2024-02-03T09:13:43.439Z,10.00
2024-02-03T09:16:10.567Z,10.50
2024-02-03T09:18:37.729Z,11.00
2024-02-03T09:21:08.746Z,10.90
2024-02-03T09:23:38.069Z,10.70
2024-02-03T09:26:05.877Z,10.60
2024-02-03T09:28:32.919Z,10.50
2024-02-03T09:31:00.852Z,10.30
2024-02-03T09:33:28.393Z,10.40
2024-02-03T09:35:56.727Z,10.40
2024-02-03T09:38:23.896Z,10.70
2024-02-03T09:40:53.087Z,10.90
2024-02-03T09:43:20.219Z,11.90
2024-02-03T09:45:48.170Z,12.60
2024-02-03T09:48:15.447Z,13.10
2024-02-03T09:50:42.433Z,13.50
2024-02-03T09:53:11.289Z,13.90
2024-02-03T09:55:38.383Z,13.90
2024-02-03T09:58:05.402Z,13.70
2024-02-03T10:00:33.382Z,14.20
2024-02-03T10:03:00.576Z,14.40
2024-02-03T10:05:32.051Z,14.00
2024-02-03T10:08:07.582Z,14.20
2024-02-03T10:13:13.565Z,14.60
2024-02-03T10:15:41.638Z,14.80
2024-02-03T10:18:12.147Z,15.00
2024-02-03T10:20:39.200Z,15.10
2024-02-03T10:23:06.407Z,15.20
2024-02-03T10:25:34.883Z,15.20
2024-02-03T10:28:09.414Z,15.30
2024-02-03T10:30:40.291Z,15.40
2024-02-03T10:33:08.281Z,15.60
2024-02-03T10:35:38.044Z,15.60
2024-02-03T10:38:05.126Z,15.60
2024-02-03T10:40:34.907Z,15.60
2024-02-03T10:43:03.480Z,15.60
2024-02-03T10:45:33.237Z,15.50
2024-02-03T10:48:03.664Z,15.50
2024-02-03T10:50:44.758Z,15.60
2024-02-03T10:53:19.064Z,15.60
2024-02-03T10:55:56.570Z,15.80
2024-02-03T10:58:25.997Z,15.70
2024-02-03T11:00:54.510Z,15.80
2024-02-03T11:03:22.535Z,15.90
2024-02-03T11:05:56.954Z,15.90
2024-02-03T11:08:25.373Z,16.00
2024-02-03T11:10:52.807Z,16.00
2024-02-03T11:13:24.053Z,16.10
2024-02-03T11:15:58.092Z,16.10
2024-02-03T11:18:26.264Z,16.20
2024-02-03T11:21:06.936Z,16.20
2024-02-03T11:23:34.583Z,16.20
2024-02-03T11:26:01.786Z,16.30
2024-02-03T11:28:36.404Z,16.40
2024-02-03T11:31:05.845Z,16.40
2024-02-03T11:33:47.651Z,16.60
2024-02-03T11:36:15.566Z,16.60
2024-02-03T11:38:49.697Z,16.60
2024-02-03T11:41:17.886Z,16.50
2024-02-03T11:43:44.914Z,16.40
2024-02-03T11:46:12.708Z,16.50
2024-02-03T11:48:40.650Z,16.60
2024-02-03T11:51:10.422Z,16.60
2024-02-03T11:53:37.798Z,16.50
2024-02-03T11:56:05.462Z,16.50
2024-02-03T11:58:32.461Z,16.50
2024-02-03T12:01:06.496Z,16.40
2024-02-03T12:03:33.610Z,16.20
2024-02-03T12:06:00.855Z,16.10
2024-02-03T12:08:27.973Z,16.10
2024-02-03T12:10:55.130Z,16.20
2024-02-03T12:13:22.524Z,16.20
2024-02-03T12:15:49.683Z,16.30
2024-02-03T12:18:21.330Z,16.30
2024-02-03T12:20:49.518Z,16.40
2024-02-03T12:23:19.793Z,16.50
2024-02-03T12:25:49.983Z,16.60
2024-02-03T12:28:19.310Z,16.80
2024-02-03T12:30:58.540Z,16.70
2024-02-03T12:33:25.832Z,16.70
2024-02-03T12:35:53.124Z,16.80
2024-02-03T12:38:22.567Z,16.80
2024-02-03T12:40:49.875Z,16.90
2024-02-03T12:43:17.259Z,16.90
2024-02-03T12:45:44.743Z,16.90
2024-02-03T12:48:11.929Z,16.90
2024-02-03T12:50:39.192Z,16.80
2024-02-03T12:53:06.333Z,16.90
2024-02-03T12:55:33.539Z,17.00
2024-02-03T12:58:01.031Z,17.00
2024-02-03T13:00:28.236Z,17.00
2024-02-03T13:02:55.320Z,16.90
2024-02-03T13:05:24.294Z,17.00
2024-02-03T13:07:53.012Z,17.00
2024-02-03T13:10:20.393Z,17.00
2024-02-03T13:12:48.273Z,16.90
2024-02-03T13:15:16.155Z,17.00
2024-02-03T13:17:44.090Z,17.00
2024-02-03T13:20:11.807Z,17.00
2024-02-03T13:22:39.091Z,17.00
2024-02-03T13:25:07.087Z,17.00
2024-02-03T13:27:34.412Z,17.20
2024-02-03T13:30:01.808Z,17.20
2024-02-03T13:32:28.969Z,17.10
2024-02-03T13:34:56.186Z,17.20
2024-02-03T13:37:23.640Z,17.10
2024-02-03T13:39:51.121Z,17.00
2024-02-03T13:42:18.178Z,17.10
2024-02-03T13:44:45.343Z,17.00
2024-02-03T13:47:13.113Z,17.10
2024-02-03T13:49:40.316Z,17.10
2024-02-03T13:52:07.721Z,17.10
2024-02-03T13:54:34.809Z,17.10
2024-02-03T13:57:01.831Z,17.10
2024-02-03T13:59:29.783Z,17.10
2024-02-03T14:01:57.046Z,17.20
2024-02-03T14:04:24.301Z,17.10
2024-02-03T14:06:51.406Z,17.20
2024-02-03T14:09:18.571Z,17.10
2024-02-03T14:11:53.668Z,17.10
2024-02-03T14:14:23.346Z,17.00
2024-02-03T14:16:50.770Z,17.00
2024-02-03T14:19:18.289Z,17.00
2024-02-03T14:21:45.707Z,17.00
2024-02-03T14:24:13.254Z,16.90
2024-02-03T14:26:41.774Z,16.90
2024-02-03T14:29:09.444Z,16.90
2024-02-03T14:31:36.761Z,17.00
2024-02-03T14:34:04.091Z,16.90
2024-02-03T14:36:32.920Z,16.90
2024-02-03T14:39:00.260Z,16.80
2024-02-03T14:41:27.319Z,16.80
2024-02-03T14:43:54.477Z,16.80
2024-02-03T14:46:21.930Z,16.80
2024-02-03T14:48:49.249Z,16.70
2024-02-03T14:51:16.666Z,16.70
2024-02-03T14:53:43.825Z,16.60
2024-02-03T14:56:11.166Z,16.70
2024-02-03T14:58:38.336Z,16.60
2024-02-03T15:01:05.781Z,16.60
2024-02-03T15:03:33.231Z,16.60
2024-02-03T15:06:00.463Z,16.60
2024-02-03T15:08:27.540Z,16.50
2024-02-03T15:10:54.810Z,16.30
2024-02-03T15:13:21.891Z,16.10
2024-02-03T15:15:48.957Z,15.80
2024-02-03T15:18:16.073Z,15.60
2024-02-03T15:20:43.214Z,15.60
2024-02-03T15:23:12.982Z,15.70
2024-02-03T15:25:40.335Z,15.60
2024-02-03T15:28:07.454Z,15.40
2024-02-03T15:30:34.581Z,15.30
2024-02-03T15:33:01.706Z,15.20
2024-02-03T15:35:28.919Z,15.20
2024-02-03T15:37:56.324Z,15.20
2024-02-03T15:40:26.506Z,15.00
2024-02-03T15:42:58.270Z,14.90
2024-02-03T15:45:26.364Z,14.70
2024-02-03T15:47:53.699Z,14.50
2024-02-03T15:50:21.230Z,14.50
2024-02-03T15:52:48.568Z,14.40
2024-02-03T15:55:16.151Z,14.10
2024-02-03T15:57:43.415Z,14.00
2024-02-03T16:00:11.336Z,13.90
2024-02-03T16:02:38.502Z,13.60
2024-02-03T16:05:06.042Z,13.30
2024-02-03T16:07:33.469Z,13.20
2024-02-03T16:10:01.143Z,13.40
2024-02-03T16:12:29.837Z,13.10
2024-02-03T16:14:57.056Z,12.60
2024-02-03T16:17:24.372Z,12.20
2024-02-03T16:19:51.730Z,12.10
2024-02-03T16:22:19.384Z,12.20
2024-02-03T16:24:46.668Z,12.20
2024-02-03T16:27:14.127Z,11.90
2024-02-03T16:29:41.348Z,11.80
2024-02-03T16:32:08.475Z,11.70
2024-02-03T16:34:35.682Z,11.80
2024-02-03T16:37:02.952Z,11.80
2024-02-03T16:39:30.548Z,11.90
2024-02-03T16:41:57.982Z,11.70
2024-02-03T16:44:25.031Z,11.50
2024-02-03T16:46:52.073Z,11.40
2024-02-03T16:49:20.722Z,11.30
2024-02-03T16:51:48.145Z,11.30
2024-02-03T16:54:15.886Z,11.60
2024-02-03T16:56:43.126Z,12.20
2024-02-03T16:59:10.208Z,11.80
2024-02-03T17:01:37.200Z,11.60
2024-02-03T17:04:04.657Z,11.50
2024-02-03T17:06:37.075Z,11.60
2024-02-03T17:09:05.088Z,11.80
2024-02-03T17:11:32.065Z,11.60
2024-02-03T17:13:59.196Z,11.40
2024-02-03T17:16:26.278Z,11.30
2024-02-03T17:18:53.648Z,11.40
2024-02-03T17:21:21.534Z,11.30
2024-02-03T17:23:48.841Z,11.30
2024-02-03T17:26:15.820Z,11.30
2024-02-03T17:28:42.918Z,11.50
2024-02-03T17:31:10.010Z,11.40
2024-02-03T17:33:37.160Z,11.20
2024-02-03T17:36:04.605Z,11.30
2024-02-03T17:38:31.591Z,10.90
2024-02-03T17:40:58.662Z,11.30
2024-02-03T17:43:25.659Z,11.60
2024-02-03T17:45:52.666Z,12.00
2024-02-03T17:48:22.183Z,12.60
2024-02-03T17:50:49.813Z,12.50
2024-02-03T17:53:16.816Z,12.70
2024-02-03T17:55:45.205Z,13.00
2024-02-03T17:58:12.482Z,12.80
2024-02-03T18:00:39.978Z,12.70
2024-02-03T18:03:08.590Z,12.10
2024-02-03T18:05:35.909Z,11.80
2024-02-03T18:08:03.124Z,11.40
2024-02-03T18:10:30.181Z,11.10
2024-02-03T18:12:57.275Z,10.90
2024-02-03T18:15:26.022Z,10.80
2024-02-03T18:17:53.521Z,10.50
2024-02-03T18:20:20.641Z,10.20
2024-02-03T18:22:47.756Z,10.00
2024-02-03T18:25:14.732Z,10.00
2024-02-03T18:27:41.862Z,9.80
2024-02-03T18:30:09.447Z,9.70
2024-02-03T18:32:37.714Z,9.50
2024-02-03T18:35:06.810Z,9.40
2024-02-03T18:37:38.721Z,9.10
2024-02-03T18:40:06.824Z,8.90
2024-02-03T18:42:34.246Z,8.60
2024-02-03T18:45:01.411Z,8.50
2024-02-03T18:47:28.574Z,8.30
2024-02-03T18:49:55.721Z,8.30
2024-02-03T18:52:22.875Z,8.10
2024-02-03T18:54:50.110Z,7.80
2024-02-03T18:57:17.233Z,7.80
2024-02-03T18:59:44.409Z,7.80
2024-02-03T19:02:11.535Z,7.80
2024-02-03T19:04:38.676Z,7.60
2024-02-03T19:07:05.949Z,7.40
2024-02-03T19:09:36.354Z,7.30
2024-02-03T19:12:03.668Z,7.30
2024-02-03T19:14:30.775Z,7.30
2024-02-03T19:16:57.946Z,7.20
2024-02-03T19:19:25.260Z,7.20
2024-02-03T19:21:52.437Z,7.20
2024-02-03T19:24:19.500Z,7.10
2024-02-03T19:26:46.608Z,7.10
2024-02-03T19:29:13.602Z,7.00
2024-02-03T19:31:40.748Z,7.10
2024-02-03T19:34:07.908Z,7.00
2024-02-03T19:36:35.145Z,7.20
2024-02-03T19:39:02.333Z,7.10
2024-02-03T19:41:29.568Z,7.00
2024-02-03T19:43:56.626Z,6.90
2024-02-03T19:46:23.781Z,6.50
2024-02-03T19:48:50.916Z,6.30
2024-02-03T19:51:18.272Z,6.20
2024-02-03T19:53:45.346Z,6.20
2024-02-03T19:56:12.501Z,6.30
2024-02-03T19:58:39.514Z,6.30
2024-02-03T20:01:07.333Z,6.50
2024-02-03T20:03:34.633Z,6.70
2024-02-03T20:06:01.760Z,6.70
2024-02-03T20:08:28.849Z,6.40
2024-02-03T20:10:56.066Z,6.30
2024-02-03T20:13:26.650Z,6.10
2024-02-03T20:15:54.657Z,5.90
2024-02-03T20:18:21.886Z,5.90
2024-02-03T20:20:53.338Z,6.00
2024-02-03T20:23:20.897Z,6.00
2024-02-03T20:25:48.034Z,5.90
2024-02-03T20:28:19.999Z,5.90
2024-02-03T20:30:47.749Z,5.90
2024-02-03T20:33:14.956Z,5.70
2024-02-03T20:35:42.273Z,5.80
2024-02-03T20:38:09.694Z,5.80
2024-02-03T20:40:41.472Z,5.80
2024-02-03T20:43:13.455Z,5.90
2024-02-03T20:45:40.597Z,5.80
2024-02-03T20:48:07.711Z,5.90
2024-02-03T20:50:35.051Z,5.80
2024-02-03T20:53:02.394Z,5.70
2024-02-03T20:55:29.602Z,5.60
2024-02-03T20:57:56.877Z,5.50
2024-02-03T21:00:24.410Z,5.60
2024-02-03T21:02:51.576Z,5.60
2024-02-03T21:05:18.942Z,5.50
2024-02-03T21:07:47.689Z,5.40
2024-02-03T21:10:15.112Z,5.40
2024-02-03T21:12:43.286Z,5.60
2024-02-03T21:15:10.702Z,5.60
2024-02-03T21:17:37.791Z,5.70
2024-02-03T21:20:06.947Z,5.80
2024-02-03T21:22:34.591Z,5.80
2024-02-03T21:25:01.710Z,5.80
2024-02-03T21:27:28.910Z,5.80
2024-02-03T21:29:55.938Z,5.60
2024-02-03T21:32:23.051Z,5.40
2024-02-03T21:34:50.482Z,5.50
2024-02-03T21:37:18.998Z,5.40
2024-02-03T21:39:47.350Z,5.50
2024-02-03T21:42:14.509Z,5.30
2024-02-03T21:44:41.599Z,5.20
2024-02-03T21:47:08.571Z,5.30
2024-02-03T21:49:35.861Z,5.40
2024-02-03T21:52:03.065Z,5.30
2024-02-03T21:54:30.284Z,5.30
2024-02-03T21:56:57.328Z,5.10
2024-02-03T21:59:24.427Z,5.00
2024-02-03T22:01:51.566Z,4.90
2024-02-03T22:04:18.676Z,4.80
2024-02-03T22:06:46.943Z,4.80
2024-02-03T22:09:17.502Z,4.90
2024-02-03T22:11:45.242Z,5.10
2024-02-03T22:14:12.373Z,5.30
2024-02-03T22:16:39.399Z,4.90
2024-02-03T22:19:07.018Z,4.30
2024-02-03T22:21:34.140Z,4.10
2024-02-03T22:24:01.351Z,4.00
2024-02-03T22:26:28.540Z,4.00
2024-02-03T22:28:55.825Z,3.90
2024-02-03T22:31:22.918Z,4.10
2024-02-03T22:33:49.988Z,4.10
2024-02-03T22:36:17.094Z,4.10
2024-02-03T22:38:44.192Z,4.10
2024-02-03T22:41:11.423Z,4.10
2024-02-03T22:43:38.527Z,4.00
2024-02-03T22:46:05.813Z,4.10
2024-02-03T22:48:33.141Z,4.30
2024-02-03T22:51:00.900Z,4.20
2024-02-03T22:53:28.057Z,4.00
2024-02-03T22:55:55.403Z,3.80
2024-02-03T22:58:22.483Z,3.70
2024-02-03T23:00:51.054Z,3.70
2024-02-03T23:03:18.406Z,3.50
2024-02-03T23:05:45.564Z,3.50
2024-02-03T23:08:12.637Z,3.30
2024-02-03T23:10:39.710Z,3.20
2024-02-03T23:13:06.987Z,3.20
2024-02-03T23:15:34.069Z,3.30
2024-02-03T23:18:01.716Z,3.40
2024-02-03T23:20:28.852Z,3.40
2024-02-03T23:22:55.995Z,3.30
2024-02-03T23:25:24.320Z,3.20
2024-02-03T23:27:51.418Z,3.30
2024-02-03T23:30:18.571Z,3.40
2024-02-03T23:32:45.619Z,3.50
2024-02-03T23:35:13.560Z,3.50
2024-02-03T23:37:40.680Z,3.60
2024-02-03T23:40:10.935Z,3.60
2024-02-03T23:42:38.200Z,3.70
2024-02-03T23:45:05.747Z,3.70
2024-02-03T23:47:32.898Z,3.70
2024-02-03T23:50:00.476Z,3.80
2024-02-03T23:52:27.690Z,4.00
2024-02-03T23:54:54.699Z,3.90
2024-02-03T23:57:21.874Z,3.80
2024-02-03T23:59:49.682Z,3.70
